createdAt,value
2019-04-14T00:01:23.859Z,6.30
2019-04-14T00:04:05.243Z,6.20
2019-04-14T00:06:39.659Z,6.30
2019-04-14T00:09:16.209Z,6.20
2019-04-14T00:11:48.130Z,6.20
2019-04-14T00:14:19.313Z,6.20
2019-04-14T00:16:51.503Z,6.10
2019-04-14T00:19:22.040Z,6.10
2019-04-14T00:21:52.571Z,6.10
2019-04-14T00:24:23.096Z,6.10
2019-04-14T00:26:53.636Z,6.00
2019-04-14T00:29:24.646Z,6.00
2019-04-14T00:31:55.794Z,6.00
2019-04-14T00:34:40.534Z,6.00
2019-04-14T00:37:31.644Z,6.00
2019-04-14T00:40:21.546Z,6.00
2019-04-14T00:43:00.581Z,6.00
2019-04-14T00:45:42.637Z,5.90
2019-04-14T00:48:14.431Z,5.90
2019-04-14T00:50:43.117Z,5.90
2019-04-14T00:53:14.305Z,5.90
2019-04-14T00:55:46.365Z,5.90
2019-04-14T00:58:17.235Z,5.90
2019-04-14T01:00:47.878Z,5.90
2019-04-14T01:03:19.874Z,5.90
2019-04-14T01:05:50.912Z,5.90
2019-04-14T01:08:22.698Z,5.80
2019-04-14T01:10:54.055Z,5.80
2019-04-14T01:13:26.692Z,5.90
2019-04-14T01:16:05.243Z,5.90
2019-04-14T01:18:49.449Z,5.80
2019-04-14T01:21:20.109Z,5.80
2019-04-14T01:23:50.919Z,5.80
2019-04-14T01:26:22.447Z,5.80
2019-04-14T01:28:56.801Z,5.80
2019-04-14T01:31:27.400Z,5.80
2019-04-14T01:33:57.827Z,5.80
2019-04-14T01:36:28.242Z,5.70
2019-04-14T01:38:58.632Z,5.70
2019-04-14T01:41:30.226Z,5.80
2019-04-14T01:44:01.075Z,5.80
2019-04-14T01:46:34.044Z,5.80
2019-04-14T01:49:05.027Z,5.80
2019-04-14T01:52:03.644Z,5.70
2019-04-14T01:55:06.973Z,5.70
2019-04-14T01:57:55.155Z,5.70
2019-04-14T02:00:59.754Z,5.70
2019-04-14T02:03:30.353Z,5.70
2019-04-14T02:06:00.843Z,5.60
2019-04-14T02:08:31.430Z,5.60
2019-04-14T02:11:02.980Z,5.60
2019-04-14T02:13:35.344Z,5.60
2019-04-14T02:16:18.483Z,5.60
2019-04-14T02:18:38.724Z,5.60
2019-04-14T02:21:10.743Z,5.60
2019-04-14T02:23:41.357Z,5.50
2019-04-14T02:26:13.251Z,5.40
2019-04-14T02:28:43.948Z,5.40
2019-04-14T02:31:30.093Z,5.40
2019-04-14T02:34:19.162Z,5.40
2019-04-14T02:36:46.257Z,5.40
2019-04-14T02:39:22.325Z,5.30
2019-04-14T02:44:33.631Z,5.40
2019-04-14T02:46:53.087Z,5.40
2019-04-14T02:49:27.270Z,5.40
2019-04-14T02:51:58.503Z,5.40
2019-04-14T02:54:50.403Z,5.30
2019-04-14T02:59:37.133Z,5.30
2019-04-14T03:04:44.927Z,5.30
2019-04-14T03:07:19.096Z,5.30
2019-04-14T03:12:29.035Z,5.20
2019-04-14T03:14:53.649Z,5.20
2019-04-14T03:17:43.321Z,5.20
2019-04-14T03:23:19.151Z,5.10
2019-04-14T03:25:43.691Z,5.00
2019-04-14T03:34:07.568Z,5.00
2019-04-14T03:38:36.522Z,5.00
2019-04-14T03:41:18.818Z,5.00
2019-04-14T03:43:36.966Z,5.00
2019-04-14T03:46:19.371Z,4.90
2019-04-14T03:56:35.572Z,4.90
2019-04-14T03:59:06.740Z,4.80
2019-04-14T04:01:37.274Z,4.80
2019-04-14T04:04:07.767Z,4.90
2019-04-14T04:06:39.841Z,4.80
2019-04-14T04:09:10.569Z,4.90
2019-04-14T04:11:43.309Z,4.80
2019-04-14T04:14:14.031Z,4.80
2019-04-14T04:16:55.663Z,4.90
2019-04-14T04:20:04.488Z,4.90
2019-04-14T04:22:54.367Z,4.80
2019-04-14T04:25:36.244Z,4.80
2019-04-14T04:28:25.552Z,4.70
2019-04-14T04:31:06.721Z,4.70
2019-04-14T04:33:52.493Z,4.70
2019-04-14T04:36:29.114Z,4.70
2019-04-14T04:39:21.522Z,4.70
2019-04-14T04:41:52.060Z,4.70
2019-04-14T04:44:22.604Z,4.80
2019-04-14T04:46:53.104Z,4.80
2019-04-14T04:49:26.507Z,4.80
2019-04-14T04:51:55.825Z,4.70
2019-04-14T04:54:27.920Z,4.70
2019-04-14T04:56:58.544Z,4.70
2019-04-14T04:59:29.954Z,4.80
2019-04-14T05:02:02.575Z,4.80
2019-04-14T05:04:33.232Z,4.90
2019-04-14T05:07:03.798Z,4.90
2019-04-14T05:09:52.048Z,4.90
2019-04-14T05:12:32.788Z,4.90
2019-04-14T05:15:22.656Z,4.90
2019-04-14T05:17:53.757Z,4.90
2019-04-14T05:20:24.897Z,4.90
2019-04-14T05:22:55.430Z,4.90
2019-04-14T05:25:26.003Z,5.00
2019-04-14T05:27:56.556Z,5.20
2019-04-14T05:30:27.104Z,5.50
2019-04-14T05:32:58.513Z,5.60
2019-04-14T05:35:29.409Z,5.90
2019-04-14T05:38:00.396Z,5.90
2019-04-14T05:43:33.702Z,5.80
2019-04-14T05:45:54.498Z,5.60
2019-04-14T05:48:25.166Z,5.60
2019-04-14T05:50:55.795Z,5.60
2019-04-14T05:53:26.330Z,5.70
2019-04-14T05:55:57.081Z,5.60
2019-04-14T05:58:27.579Z,5.60
2019-04-14T06:00:58.067Z,5.60
2019-04-14T06:03:29.650Z,5.60
2019-04-14T06:06:00.980Z,5.70
2019-04-14T06:08:31.483Z,5.70
2019-04-14T06:11:02.573Z,5.60
2019-04-14T06:13:33.728Z,5.70
2019-04-14T06:16:06.593Z,5.70
2019-04-14T06:18:37.116Z,5.90
2019-04-14T06:21:07.691Z,6.00
2019-04-14T06:23:38.685Z,6.10
2019-04-14T06:26:10.727Z,6.20
2019-04-14T06:28:41.348Z,6.20
2019-04-14T06:31:48.965Z,6.30
2019-04-14T06:34:44.604Z,6.40
2019-04-14T06:37:29.605Z,6.50
2019-04-14T06:40:00.152Z,6.60
2019-04-14T06:42:30.743Z,6.60
2019-04-14T06:45:01.321Z,6.60
2019-04-14T06:47:32.237Z,6.50
2019-04-14T06:50:02.768Z,6.50
2019-04-14T06:52:33.340Z,6.50
2019-04-14T06:55:03.983Z,6.50
2019-04-14T06:57:34.485Z,6.40
2019-04-14T07:00:05.389Z,6.40
2019-04-14T07:02:36.052Z,6.50
2019-04-14T07:05:07.064Z,6.60
2019-04-14T07:07:37.596Z,6.90
2019-04-14T07:10:08.009Z,7.10
2019-04-14T07:12:42.840Z,7.40
2019-04-14T07:15:12.732Z,7.70
2019-04-14T07:17:43.491Z,8.00
2019-04-14T07:20:14.126Z,8.30
2019-04-14T07:22:45.305Z,8.50
2019-04-14T07:25:16.150Z,8.80
2019-04-14T07:27:47.132Z,8.90
2019-04-14T07:30:43.288Z,8.90
2019-04-14T07:33:39.675Z,8.90
2019-04-14T07:36:47.280Z,8.90
2019-04-14T07:39:50.473Z,8.90
2019-04-14T07:42:39.981Z,8.80
2019-04-14T07:45:17.680Z,8.80
2019-04-14T07:48:09.938Z,8.90
2019-04-14T07:51:05.259Z,8.90
2019-04-14T07:53:45.692Z,8.80
2019-04-14T07:56:40.984Z,8.80
2019-04-14T07:59:17.415Z,8.90
2019-04-14T08:01:53.340Z,9.10
2019-04-14T08:04:29.268Z,9.40
2019-04-14T08:07:00.527Z,9.80
2019-04-14T08:09:31.125Z,10.20
2019-04-14T08:12:01.700Z,10.50
2019-04-14T08:14:32.981Z,10.60
2019-04-14T08:17:03.635Z,10.70
2019-04-14T08:19:35.252Z,10.80
2019-04-14T08:22:06.676Z,10.90
2019-04-14T08:24:37.411Z,10.90
2019-04-14T08:27:08.005Z,11.10
2019-04-14T08:29:39.294Z,11.10
2019-04-14T08:32:10.229Z,11.10
2019-04-14T08:34:40.764Z,11.20
2019-04-14T08:37:11.281Z,11.60
2019-04-14T08:39:42.457Z,11.70
2019-04-14T08:42:38.332Z,11.80
2019-04-14T08:45:17.905Z,12.20
2019-04-14T08:47:57.707Z,12.30
2019-04-14T08:50:39.710Z,12.60
2019-04-14T08:53:32.337Z,12.80
2019-04-14T08:56:37.264Z,12.90
2019-04-14T08:59:34.768Z,12.90
2019-04-14T09:02:23.487Z,13.00
2019-04-14T09:05:03.116Z,13.10
2019-04-14T09:07:38.814Z,13.30
2019-04-14T09:10:14.838Z,13.30
2019-04-14T09:12:47.424Z,13.60
2019-04-14T09:15:17.953Z,13.60
2019-04-14T09:17:48.516Z,13.60
2019-04-14T09:20:19.623Z,13.60
2019-04-14T09:22:52.302Z,13.60
2019-04-14T09:25:23.355Z,14.10
2019-04-14T09:27:54.988Z,14.40
2019-04-14T09:30:25.515Z,14.50
2019-04-14T09:32:57.253Z,14.50
2019-04-14T09:35:28.748Z,14.40
2019-04-14T09:37:59.440Z,14.00
2019-04-14T09:40:30.304Z,13.90
2019-04-14T09:43:01.416Z,13.70
2019-04-14T09:45:32.447Z,13.30
2019-04-14T09:48:03.049Z,13.40
2019-04-14T09:50:36.388Z,13.60
2019-04-14T09:53:07.533Z,13.70
2019-04-14T09:55:38.640Z,13.40
2019-04-14T09:58:40.772Z,13.10
2019-04-14T10:01:16.766Z,12.60
2019-04-14T10:03:47.334Z,12.40
2019-04-14T10:06:18.916Z,12.40
2019-04-14T10:09:10.286Z,12.40
2019-04-14T10:11:48.850Z,12.10
2019-04-14T10:14:19.199Z,12.40
2019-04-14T10:16:49.720Z,12.50
2019-04-14T10:19:20.623Z,12.40
2019-04-14T10:21:51.243Z,12.30
2019-04-14T10:24:21.741Z,12.40
2019-04-14T10:26:54.828Z,13.10
2019-04-14T10:29:26.120Z,13.40
2019-04-14T10:31:57.817Z,13.20
2019-04-14T10:34:28.326Z,13.10
2019-04-14T10:36:58.864Z,13.20
2019-04-14T10:39:29.406Z,13.30
2019-04-14T10:42:00.646Z,13.10
2019-04-14T10:44:31.678Z,12.70
2019-04-14T10:47:02.737Z,12.80
2019-04-14T10:49:33.693Z,13.00
2019-04-14T10:52:04.778Z,13.00
2019-04-14T10:54:35.937Z,12.70
2019-04-14T10:57:06.875Z,12.70
2019-04-14T10:59:37.892Z,12.70
2019-04-14T11:02:08.447Z,12.50
2019-04-14T11:04:39.337Z,12.30
2019-04-14T11:07:14.896Z,12.10
2019-04-14T11:09:49.524Z,12.00
2019-04-14T11:12:21.324Z,11.80
2019-04-14T11:14:52.199Z,11.50
2019-04-14T11:17:22.695Z,11.50
2019-04-14T11:19:53.399Z,11.50
2019-04-14T11:22:23.904Z,11.40
2019-04-14T11:24:55.337Z,11.30
2019-04-14T11:27:25.860Z,11.20
2019-04-14T11:29:56.977Z,11.10
2019-04-14T11:32:58.756Z,11.10
2019-04-14T11:35:36.908Z,11.00
2019-04-14T11:38:14.471Z,10.90
2019-04-14T11:40:47.945Z,10.80
2019-04-14T11:43:18.469Z,10.70
2019-04-14T11:45:49.528Z,10.60
2019-04-14T11:48:20.218Z,10.50
2019-04-14T11:50:51.283Z,10.60
2019-04-14T11:53:25.666Z,10.70
2019-04-14T11:55:56.694Z,10.70
2019-04-14T11:58:29.127Z,10.70
2019-04-14T12:01:24.952Z,10.70
2019-04-14T12:04:07.419Z,10.60
2019-04-14T12:06:57.921Z,10.50
2019-04-14T12:09:31.661Z,10.40
2019-04-14T12:12:03.516Z,10.70
2019-04-14T12:14:35.093Z,10.80
2019-04-14T12:17:06.428Z,10.70
2019-04-14T12:19:37.559Z,10.70
2019-04-14T12:22:08.936Z,10.70
2019-04-14T12:24:39.593Z,10.70
2019-04-14T12:27:10.193Z,10.70
2019-04-14T12:29:41.240Z,10.50
2019-04-14T12:32:12.889Z,10.50
2019-04-14T12:34:43.617Z,10.60
2019-04-14T12:37:14.992Z,10.70
2019-04-14T12:39:45.717Z,10.80
2019-04-14T12:42:37.835Z,10.80
2019-04-14T12:45:27.385Z,10.70
2019-04-14T12:48:22.606Z,10.50
2019-04-14T12:50:59.881Z,10.50
2019-04-14T12:53:31.218Z,10.50
2019-04-14T12:56:01.608Z,10.50
2019-04-14T12:58:53.995Z,10.50
2019-04-14T13:01:26.688Z,10.60
2019-04-14T13:03:57.130Z,10.60
2019-04-14T13:06:28.245Z,10.60
2019-04-14T13:08:58.820Z,10.60
2019-04-14T13:11:30.258Z,10.70
2019-04-14T13:14:00.839Z,10.60
2019-04-14T13:16:31.501Z,10.70
2019-04-14T13:19:02.100Z,10.80
2019-04-14T13:21:34.724Z,10.70
2019-04-14T13:24:06.005Z,10.80
2019-04-14T13:26:37.807Z,10.80
2019-04-14T13:29:08.567Z,10.80
2019-04-14T13:31:39.534Z,10.80
2019-04-14T13:34:10.056Z,10.80
2019-04-14T13:36:40.628Z,10.70
2019-04-14T13:39:12.747Z,10.70
2019-04-14T13:41:43.601Z,10.70
2019-04-14T13:44:14.486Z,10.70
2019-04-14T13:46:45.507Z,10.60
2019-04-14T13:49:16.345Z,10.60
2019-04-14T13:51:47.274Z,10.70
2019-04-14T13:54:17.829Z,10.60
2019-04-14T13:56:48.584Z,10.60
2019-04-14T13:59:19.539Z,10.60
2019-04-14T14:01:50.393Z,10.50
2019-04-14T14:04:20.908Z,10.50
2019-04-14T14:06:52.693Z,10.40
2019-04-14T14:09:23.247Z,10.30
2019-04-14T14:12:05.316Z,10.40
2019-04-14T14:14:54.573Z,10.40
2019-04-14T14:17:42.812Z,10.40
2019-04-14T14:20:33.209Z,10.40
2019-04-14T14:23:29.421Z,10.50
2019-04-14T14:26:03.324Z,10.50
2019-04-14T14:28:35.149Z,10.40
2019-04-14T14:31:06.292Z,10.40
2019-04-14T14:33:39.293Z,10.30
2019-04-14T14:36:09.784Z,10.30
2019-04-14T14:38:40.923Z,10.30
2019-04-14T14:41:15.500Z,10.30
2019-04-14T14:43:48.995Z,10.40
2019-04-14T14:46:44.393Z,10.50
2019-04-14T14:49:25.599Z,10.60
2019-04-14T14:52:03.204Z,10.60
2019-04-14T14:54:34.156Z,10.70
2019-04-14T14:57:05.757Z,10.90
2019-04-14T14:59:36.254Z,11.00
2019-04-14T15:02:07.841Z,11.00
2019-04-14T15:04:38.407Z,11.00
2019-04-14T15:07:09.833Z,10.90
2019-04-14T15:09:40.390Z,10.90
2019-04-14T15:12:11.386Z,10.80
2019-04-14T15:14:41.973Z,10.90
2019-04-14T15:17:12.741Z,10.70
2019-04-14T15:19:43.309Z,10.70
2019-04-14T15:22:16.455Z,10.80
2019-04-14T15:24:47.005Z,10.80
2019-04-14T15:27:17.905Z,10.80
2019-04-14T15:29:49.504Z,10.70
2019-04-14T15:32:20.457Z,10.70
2019-04-14T15:34:50.993Z,10.60
2019-04-14T15:37:21.552Z,10.60
2019-04-14T15:39:52.241Z,10.50
2019-04-14T15:42:22.888Z,10.50
2019-04-14T15:44:53.881Z,10.60
2019-04-14T15:47:24.869Z,10.60
2019-04-14T15:49:55.972Z,10.60
2019-04-14T15:52:26.938Z,10.60
2019-04-14T15:54:57.876Z,10.50
2019-04-14T15:57:47.737Z,10.50
2019-04-14T16:00:43.641Z,10.50
2019-04-14T16:03:36.441Z,10.50
2019-04-14T16:06:30.405Z,10.50
2019-04-14T16:09:07.680Z,10.40
2019-04-14T16:11:54.205Z,10.20
2019-04-14T16:14:44.448Z,10.20
2019-04-14T16:17:33.255Z,10.10
2019-04-14T16:20:09.812Z,10.00
2019-04-14T16:22:40.514Z,9.90
2019-04-14T16:25:12.188Z,9.80
2019-04-14T16:27:54.776Z,9.80
2019-04-14T16:30:44.585Z,9.80
2019-04-14T16:33:30.296Z,9.70
2019-04-14T16:36:02.897Z,9.70
2019-04-14T16:38:33.917Z,9.70
2019-04-14T16:41:04.540Z,9.70
2019-04-14T16:43:35.254Z,9.70
2019-04-14T16:46:06.360Z,9.70
2019-04-14T16:48:38.573Z,9.60
2019-04-14T16:51:10.659Z,9.50
2019-04-14T16:53:42.893Z,9.50
2019-04-14T16:56:31.080Z,9.60
2019-04-14T16:59:05.951Z,9.50
2019-04-14T17:01:41.367Z,9.60
2019-04-14T17:04:12.350Z,9.60
2019-04-14T17:06:45.745Z,9.50
2019-04-14T17:09:16.284Z,9.40
2019-04-14T17:11:47.847Z,9.40
2019-04-14T17:14:37.322Z,9.30
2019-04-14T17:17:26.071Z,9.20
2019-04-14T17:20:05.336Z,9.20
2019-04-14T17:22:58.365Z,9.10
2019-04-14T17:25:48.840Z,9.10
2019-04-14T17:28:44.301Z,9.00
2019-04-14T17:31:36.971Z,9.00
2019-04-14T17:34:22.324Z,8.90
2019-04-14T17:37:11.677Z,8.90
2019-04-14T17:39:47.279Z,8.90
2019-04-14T17:42:27.870Z,8.90
2019-04-14T17:45:08.180Z,8.90
2019-04-14T17:47:51.654Z,8.90
2019-04-14T17:50:41.005Z,8.80
2019-04-14T17:53:44.525Z,8.80
2019-04-14T17:56:31.254Z,8.80
2019-04-14T17:59:21.774Z,8.80
2019-04-14T18:02:15.643Z,8.80
2019-04-14T18:05:02.810Z,8.80
2019-04-14T18:07:52.869Z,8.80
2019-04-14T18:10:49.927Z,8.70
2019-04-14T18:13:33.697Z,8.70
2019-04-14T18:16:22.598Z,8.70
2019-04-14T18:19:12.447Z,8.70
2019-04-14T18:21:44.505Z,8.70
2019-04-14T18:24:14.981Z,8.70
2019-04-14T18:26:45.812Z,8.70
2019-04-14T18:29:33.703Z,8.70
2019-04-14T18:32:24.639Z,8.70
2019-04-14T18:35:14.553Z,8.70
2019-04-14T18:38:04.955Z,8.70
2019-04-14T18:40:54.419Z,8.70
2019-04-14T18:43:53.215Z,8.70
2019-04-14T18:46:35.192Z,8.70
2019-04-14T18:49:16.345Z,8.70
2019-04-14T18:51:56.255Z,8.70
2019-04-14T18:54:32.610Z,8.70
2019-04-14T18:57:21.089Z,8.70
2019-04-14T19:00:04.173Z,8.70
2019-04-14T19:02:36.707Z,8.70
2019-04-14T19:05:07.845Z,8.60
2019-04-14T19:07:39.001Z,8.60
2019-04-14T19:10:10.901Z,8.50
2019-04-14T19:13:03.377Z,8.50
2019-04-14T19:15:52.756Z,8.50
2019-04-14T19:18:33.234Z,8.40
2019-04-14T19:21:07.163Z,8.40
2019-04-14T19:23:38.144Z,8.40
2019-04-14T19:26:09.784Z,8.40
2019-04-14T19:28:42.455Z,8.30
2019-04-14T19:31:14.906Z,8.30
2019-04-14T19:33:46.625Z,8.30
2019-04-14T19:36:17.209Z,8.30
2019-04-14T19:38:47.831Z,8.20
2019-04-14T19:41:18.909Z,8.20
2019-04-14T19:43:50.015Z,8.20
2019-04-14T19:46:20.948Z,8.10
2019-04-14T19:48:52.441Z,8.10
2019-04-14T19:51:23.560Z,8.10
2019-04-14T19:53:54.541Z,8.10
2019-04-14T19:56:25.170Z,8.00
2019-04-14T19:58:55.798Z,8.00
2019-04-14T20:01:27.496Z,8.00
2019-04-14T20:03:58.456Z,8.00
2019-04-14T20:06:30.176Z,8.00
2019-04-14T20:09:01.295Z,8.00
2019-04-14T20:11:33.850Z,8.00
2019-04-14T20:14:05.925Z,8.00
2019-04-14T20:16:46.626Z,8.00
2019-04-14T20:19:39.438Z,8.00
2019-04-14T20:22:44.396Z,8.00
2019-04-14T20:25:33.591Z,8.00
2019-04-14T20:28:06.031Z,7.90
2019-04-14T20:30:40.244Z,7.90
2019-04-14T20:33:10.944Z,7.90
2019-04-14T20:35:42.128Z,7.90
2019-04-14T20:38:12.690Z,7.80
2019-04-14T20:40:43.116Z,7.90
2019-04-14T20:43:14.020Z,7.90
2019-04-14T20:45:44.936Z,7.90
2019-04-14T20:48:15.357Z,7.90
2019-04-14T20:50:47.341Z,7.80
2019-04-14T20:53:19.713Z,7.80
2019-04-14T20:55:50.198Z,7.80
2019-04-14T20:58:21.039Z,7.80
2019-04-14T21:00:51.430Z,7.80
2019-04-14T21:03:47.068Z,7.80
2019-04-14T21:06:52.283Z,7.80
2019-04-14T21:09:29.932Z,7.90
2019-04-14T21:12:04.642Z,7.90
2019-04-14T21:15:00.086Z,7.90
2019-04-14T21:17:37.751Z,7.90
2019-04-14T21:20:22.073Z,7.80
2019-04-14T21:23:14.475Z,7.90
2019-04-14T21:26:00.805Z,7.90
2019-04-14T21:28:40.376Z,7.80
2019-04-14T21:31:24.904Z,7.80
2019-04-14T21:34:18.298Z,7.80
2019-04-14T21:37:13.900Z,7.70
2019-04-14T21:39:51.407Z,7.60
2019-04-14T21:42:22.345Z,7.60
2019-04-14T21:44:52.752Z,7.50
2019-04-14T21:47:23.179Z,7.50
2019-04-14T21:49:53.740Z,7.50
2019-04-14T21:52:41.309Z,7.50
2019-04-14T21:55:12.888Z,7.50
2019-04-14T21:57:49.021Z,7.50
2019-04-14T22:00:32.486Z,7.50
2019-04-14T22:03:32.838Z,7.50
2019-04-14T22:06:17.715Z,7.40
2019-04-14T22:08:50.250Z,7.20
2019-04-14T22:11:27.215Z,7.10
2019-04-14T22:13:59.549Z,7.00
2019-04-14T22:16:31.760Z,7.00
2019-04-14T22:19:02.284Z,7.00
2019-04-14T22:21:32.789Z,6.90
2019-04-14T22:24:03.809Z,6.90
2019-04-14T22:26:35.225Z,6.90
2019-04-14T22:29:06.628Z,6.90
2019-04-14T22:31:37.244Z,6.90
2019-04-14T22:34:08.305Z,6.80
2019-04-14T22:36:38.852Z,6.80
2019-04-14T22:39:20.754Z,6.70
2019-04-14T22:41:51.516Z,6.80
2019-04-14T22:44:21.920Z,6.70
2019-04-14T22:46:52.345Z,6.70
2019-04-14T22:49:22.937Z,6.70
2019-04-14T22:51:53.480Z,6.70
2019-04-14T22:54:24.445Z,6.70
2019-04-14T22:56:54.973Z,6.70
2019-04-14T22:59:25.494Z,6.70
2019-04-14T23:02:03.702Z,6.80
2019-04-14T23:04:46.536Z,6.70
2019-04-14T23:07:42.479Z,6.80
2019-04-14T23:10:29.384Z,6.70
2019-04-14T23:13:21.591Z,6.80
2019-04-14T23:16:03.268Z,6.80
2019-04-14T23:19:01.597Z,6.80
2019-04-14T23:21:38.994Z,6.80
2019-04-14T23:24:16.037Z,6.90
2019-04-14T23:26:52.886Z,6.90
2019-04-14T23:29:18.522Z,6.80
2019-04-14T23:31:49.325Z,6.70
2019-04-14T23:34:19.730Z,6.70
2019-04-14T23:36:51.015Z,6.70
2019-04-14T23:39:21.584Z,6.60
2019-04-14T23:41:52.109Z,6.60
2019-04-14T23:44:23.124Z,6.60
2019-04-14T23:46:53.633Z,6.60
2019-04-14T23:49:24.255Z,6.70
2019-04-14T23:51:55.246Z,6.70
2019-04-14T23:54:26.820Z,6.70
2019-04-14T23:57:05.356Z,6.60
2019-04-14T23:59:30.294Z,6.70
